Avoca, Nebraska
Current Conditions -  °F | °C
As of 9:15 AM on Wednesday 26 Nov 2014 (Local Time) from KPMV Reporting Station
Light Rain Light Rain  
Wind Chill: 24°   Ceiling: 1700
Heat Index: 36°   Visibility: 5mi
Dew Point: 32°   Wind: 25mph
Humidity: 85%   Direction: 310°NW
Pressure: 29.95"   Gusts: 32mph
Location:  40.8°N, 96.12°W
Report Text: KPMV 261515Z AUTO 31022G28KT 5SM -RA OVC017 02/00 A2995 RMK AO2 T00211002
Loading
Personal Weather Stations






























Interactive Weather Map New forecast layout! Learn more

10-Day Weather Forecast

Advertisements
Track Severe Weather on mobile